createdAt,value
2022-11-19T00:00:57.215Z,1.60
2022-11-19T00:03:27.175Z,1.30
2022-11-19T00:06:04.871Z,1.75
2022-11-19T00:08:35.222Z,1.58
2022-11-19T00:11:10.357Z,1.50
2022-11-19T00:13:38.565Z,1.77
2022-11-19T00:16:10.682Z,1.83
2022-11-19T00:18:41.082Z,1.85
2022-11-19T00:21:15.145Z,1.80
2022-11-19T00:23:45.063Z,1.90
2022-11-19T00:26:16.423Z,2.10
2022-11-19T00:28:46.376Z,2.00
2022-11-19T00:31:18.261Z,2.78
2022-11-19T00:33:50.673Z,2.40
2022-11-19T00:36:24.074Z,2.60
2022-11-19T00:38:54.168Z,2.05
2022-11-19T00:41:24.377Z,2.10
2022-11-19T00:43:54.367Z,2.50
2022-11-19T00:46:26.227Z,2.17
2022-11-19T00:48:57.674Z,2.13
2022-11-19T00:51:33.084Z,2.22
2022-11-19T00:54:03.119Z,2.40
2022-11-19T00:56:33.110Z,4.10
2022-11-19T00:59:03.130Z,2.38
2022-11-19T01:01:33.390Z,2.38
2022-11-19T01:04:03.457Z,2.17
2022-11-19T01:06:36.324Z,2.13
2022-11-19T01:09:06.683Z,2.20
2022-11-19T01:11:38.271Z,2.08
2022-11-19T01:14:09.250Z,1.75
2022-11-19T01:16:41.008Z,1.70
2022-11-19T01:19:16.567Z,1.77
2022-11-19T01:21:49.459Z,1.85
2022-11-19T01:24:19.414Z,2.00
2022-11-19T01:26:49.506Z,2.00
2022-11-19T01:29:19.780Z,1.63
2022-11-19T01:31:50.043Z,1.92
2022-11-19T01:34:19.966Z,1.98
2022-11-19T01:36:52.544Z,1.60
2022-11-19T01:39:22.506Z,1.90
2022-11-19T01:41:52.470Z,1.98
2022-11-19T01:44:52.524Z,1.90
2022-11-19T01:47:22.538Z,1.98
2022-11-19T01:49:52.722Z,2.13
2022-11-19T01:52:26.151Z,2.10
2022-11-19T01:54:57.784Z,2.17
2022-11-19T01:57:27.846Z,2.17
2022-11-19T01:59:57.914Z,2.28
2022-11-19T02:02:28.582Z,2.20
2022-11-19T02:04:59.666Z,2.45
2022-11-19T02:07:35.096Z,2.60
2022-11-19T02:10:07.912Z,2.75
2022-11-19T02:12:49.572Z,2.35
2022-11-19T02:15:36.313Z,2.17
2022-11-19T02:18:25.054Z,2.08
2022-11-19T02:21:07.361Z,2.10
2022-11-19T02:24:08.936Z,2.08
2022-11-19T02:27:12.239Z,2.30
2022-11-19T02:30:06.465Z,2.38
2022-11-19T02:32:39.330Z,2.00
2022-11-19T02:35:19.129Z,2.03
2022-11-19T02:37:56.917Z,1.80
2022-11-19T02:40:31.437Z,1.73
2022-11-19T02:45:41.772Z,1.80
2022-11-19T02:48:16.922Z,1.77
2022-11-19T02:50:48.980Z,1.80
2022-11-19T02:53:19.162Z,2.10
2022-11-19T02:56:10.453Z,1.60
2022-11-19T02:58:55.883Z,1.73
2022-11-19T03:01:43.172Z,2.08
2022-11-19T03:04:27.599Z,1.50
2022-11-19T03:06:58.813Z,1.50
2022-11-19T03:09:29.378Z,2.10
2022-11-19T03:12:06.326Z,1.60
2022-11-19T03:14:57.451Z,1.23
2022-11-19T03:17:34.481Z,1.33
2022-11-19T03:20:08.812Z,1.25
2022-11-19T03:22:44.874Z,1.48
2022-11-19T03:25:21.311Z,1.50
2022-11-19T03:27:54.698Z,1.70
2022-11-19T03:30:24.827Z,1.52
2022-11-19T03:33:00.990Z,1.70
2022-11-19T03:35:35.654Z,1.25
2022-11-19T03:38:09.520Z,1.55
2022-11-19T03:40:41.282Z,1.50
2022-11-19T03:43:14.402Z,1.40
2022-11-19T03:45:47.666Z,1.40
2022-11-19T03:48:23.526Z,2.20
2022-11-19T03:50:56.340Z,1.80
2022-11-19T03:53:26.765Z,1.70
2022-11-19T03:56:01.073Z,1.67
2022-11-19T03:58:35.103Z,1.25
2022-11-19T04:01:05.068Z,1.40
2022-11-19T04:03:37.559Z,1.67
2022-11-19T04:06:08.431Z,1.77
2022-11-19T04:08:38.251Z,1.40
2022-11-19T04:13:37.021Z,1.48
2022-11-19T04:16:07.109Z,1.35
2022-11-19T04:18:39.458Z,1.70
2022-11-19T04:21:09.567Z,1.60
2022-11-19T04:23:39.319Z,1.60
2022-11-19T04:26:09.486Z,1.83
2022-11-19T04:28:39.304Z,1.90
2022-11-19T04:31:12.341Z,1.60
2022-11-19T04:33:48.840Z,1.80
2022-11-19T04:36:18.816Z,1.80
2022-11-19T04:38:48.619Z,1.98
2022-11-19T04:41:18.411Z,1.73
2022-11-19T04:43:48.244Z,1.80
2022-11-19T04:46:18.162Z,1.98
2022-11-19T04:48:50.534Z,1.60
2022-11-19T04:51:21.599Z,1.33
2022-11-19T04:53:51.435Z,1.58
2022-11-19T04:56:21.424Z,1.27
2022-11-19T04:58:51.165Z,1.15
2022-11-19T05:01:21.852Z,1.48
2022-11-19T05:03:54.262Z,1.40
2022-11-19T05:06:24.227Z,1.50
2022-11-19T05:08:54.087Z,1.85
2022-11-19T05:11:23.991Z,1.52
2022-11-19T05:13:53.794Z,1.92
2022-11-19T05:16:23.672Z,1.60
2022-11-19T05:18:56.015Z,1.45
2022-11-19T05:21:25.805Z,1.40
2022-11-19T05:23:55.565Z,1.55
2022-11-19T05:26:25.418Z,1.30
2022-11-19T05:28:55.218Z,1.70
2022-11-19T05:31:25.043Z,1.45
2022-11-19T05:33:57.495Z,1.80
2022-11-19T05:36:27.275Z,1.30
2022-11-19T05:38:57.164Z,1.63
2022-11-19T05:41:26.976Z,1.35
2022-11-19T05:43:56.800Z,1.73
2022-11-19T05:46:26.588Z,1.48
2022-11-19T05:48:58.979Z,1.67
2022-11-19T05:51:28.894Z,1.40
2022-11-19T05:53:58.742Z,2.08
2022-11-19T05:56:28.602Z,1.55
2022-11-19T05:58:58.430Z,1.48
2022-11-19T06:01:28.828Z,1.70
2022-11-19T06:04:01.320Z,2.15
2022-11-19T06:06:31.242Z,1.58
2022-11-19T06:09:01.138Z,1.98
2022-11-19T06:11:43.464Z,1.23
2022-11-19T06:14:13.191Z,1.80
2022-11-19T06:16:43.064Z,1.70
2022-11-19T06:19:15.483Z,1.77
2022-11-19T06:21:45.313Z,1.45
2022-11-19T06:24:15.563Z,1.52
2022-11-19T06:26:45.808Z,1.80
2022-11-19T06:29:17.170Z,1.60
2022-11-19T06:31:47.477Z,1.55
2022-11-19T06:34:19.847Z,1.48
2022-11-19T06:36:50.938Z,1.80
2022-11-19T06:39:21.351Z,1.50
2022-11-19T06:41:51.273Z,1.85
2022-11-19T06:44:21.026Z,1.52
2022-11-19T06:46:50.827Z,1.50
2022-11-19T06:49:23.536Z,1.55
2022-11-19T06:51:53.627Z,1.90
2022-11-19T06:54:23.482Z,1.90
2022-11-19T06:56:53.247Z,1.58
2022-11-19T06:59:23.031Z,1.63
2022-11-19T07:01:52.845Z,1.85
2022-11-19T07:04:25.263Z,1.90
2022-11-19T07:06:55.269Z,1.80
2022-11-19T07:09:25.109Z,1.77
2022-11-19T07:11:54.890Z,1.90
2022-11-19T07:14:24.780Z,2.17
2022-11-19T07:16:54.601Z,2.30
2022-11-19T07:19:27.140Z,2.80
2022-11-19T07:21:57.043Z,2.88
2022-11-19T07:24:26.859Z,2.35
2022-11-19T07:27:00.183Z,2.28
2022-11-19T07:29:29.943Z,2.13
2022-11-19T07:31:59.765Z,2.70
2022-11-19T07:34:32.142Z,2.15
2022-11-19T07:37:02.032Z,2.15
2022-11-19T07:39:31.933Z,2.10
2022-11-19T07:42:14.160Z,2.60
2022-11-19T07:44:43.972Z,1.92
2022-11-19T07:47:13.789Z,2.08
2022-11-19T07:49:46.177Z,2.20
2022-11-19T07:52:16.001Z,2.20
2022-11-19T07:54:45.801Z,1.98
2022-11-19T07:57:15.731Z,2.45
2022-11-19T07:59:45.471Z,1.90
2022-11-19T08:02:15.947Z,2.28
2022-11-19T08:04:48.387Z,2.00
2022-11-19T08:07:18.398Z,2.30
2022-11-19T08:09:48.251Z,2.40
2022-11-19T08:12:18.116Z,2.08
2022-11-19T08:14:47.890Z,2.25
2022-11-19T08:17:30.165Z,2.67
2022-11-19T08:20:02.516Z,2.25
2022-11-19T08:22:32.337Z,2.35
2022-11-19T08:25:02.118Z,2.10
2022-11-19T08:27:31.963Z,2.47
2022-11-19T08:30:01.993Z,2.15
2022-11-19T08:32:31.827Z,2.08
2022-11-19T08:35:04.205Z,1.80
2022-11-19T08:37:33.994Z,2.03
2022-11-19T08:40:03.795Z,2.10
2022-11-19T08:42:46.016Z,1.75
2022-11-19T08:45:20.645Z,2.20
2022-11-19T08:47:51.016Z,2.30
2022-11-19T08:50:23.820Z,2.33
2022-11-19T08:52:58.369Z,2.50
2022-11-19T08:58:03.558Z,2.47
2022-11-19T09:00:34.828Z,2.47
2022-11-19T09:03:04.721Z,2.40
2022-11-19T09:05:37.139Z,2.60
2022-11-19T09:08:07.863Z,2.13
2022-11-19T09:10:37.767Z,2.20
2022-11-19T09:13:07.696Z,2.63
2022-11-19T09:15:38.609Z,2.33
2022-11-19T09:18:08.584Z,2.92
2022-11-19T09:20:40.948Z,2.50
2022-11-19T09:23:10.767Z,3.08
2022-11-19T09:25:40.536Z,2.85
2022-11-19T09:28:11.305Z,2.83
2022-11-19T09:30:41.089Z,2.85
2022-11-19T09:33:10.908Z,2.78
2022-11-19T09:35:43.332Z,2.80
2022-11-19T09:38:13.171Z,2.65
2022-11-19T09:40:47.523Z,2.95
2022-11-19T09:43:24.997Z,2.65
2022-11-19T09:46:05.532Z,2.78
2022-11-19T09:48:37.197Z,2.72
2022-11-19T09:51:14.086Z,2.60
2022-11-19T09:53:48.142Z,2.65
2022-11-19T09:56:24.912Z,2.78
2022-11-19T09:58:55.502Z,3.00
2022-11-19T10:01:25.777Z,3.05
2022-11-19T10:03:57.492Z,2.75
2022-11-19T10:06:33.306Z,2.95
2022-11-19T10:09:31.543Z,3.17
2022-11-19T10:12:15.113Z,3.15
2022-11-19T10:15:11.789Z,3.03
2022-11-19T10:17:51.579Z,2.33
2022-11-19T10:20:46.938Z,2.67
2022-11-19T10:23:20.968Z,2.80
2022-11-19T10:25:53.248Z,2.63
2022-11-19T10:28:28.210Z,2.95
2022-11-19T10:31:06.503Z,2.40
2022-11-19T10:33:40.373Z,2.15
2022-11-19T10:36:14.557Z,2.47
2022-11-19T10:38:57.090Z,2.67
2022-11-19T10:41:34.640Z,2.55
2022-11-19T10:44:33.760Z,2.30
2022-11-19T10:47:03.798Z,2.25
2022-11-19T10:49:37.460Z,2.15
2022-11-19T10:52:08.061Z,2.55
2022-11-19T10:54:41.664Z,1.73
2022-11-19T10:57:17.840Z,2.00
2022-11-19T10:59:49.306Z,2.20
2022-11-19T11:02:29.244Z,2.00
2022-11-19T11:05:12.123Z,1.83
2022-11-19T11:07:54.230Z,1.95
2022-11-19T11:10:43.123Z,2.17
2022-11-19T11:13:44.164Z,2.65
2022-11-19T11:16:16.439Z,2.30
2022-11-19T11:18:47.118Z,2.00
2022-11-19T11:21:29.561Z,2.40
2022-11-19T11:24:00.062Z,2.38
2022-11-19T11:26:34.458Z,2.53
2022-11-19T11:29:06.009Z,2.22
2022-11-19T11:31:43.360Z,2.38
2022-11-19T11:34:31.331Z,1.90
2022-11-19T11:37:03.684Z,1.75
2022-11-19T11:39:35.388Z,2.90
2022-11-19T11:42:17.229Z,2.30
2022-11-19T11:44:53.353Z,2.30
2022-11-19T11:47:27.547Z,2.78
2022-11-19T11:50:07.936Z,2.60
2022-11-19T11:52:43.339Z,2.50
2022-11-19T11:55:17.714Z,2.35
2022-11-19T11:57:58.551Z,3.17
2022-11-19T12:00:37.711Z,2.88
2022-11-19T12:03:09.717Z,3.30
2022-11-19T12:06:01.301Z,2.90
2022-11-19T12:08:46.938Z,2.47
2022-11-19T12:11:25.301Z,2.70
2022-11-19T12:14:04.309Z,2.22
2022-11-19T12:16:49.059Z,2.28
2022-11-19T12:19:35.357Z,2.65
2022-11-19T12:22:12.434Z,2.20
2022-11-19T12:24:57.619Z,1.88
2022-11-19T12:27:38.818Z,2.30
2022-11-19T12:30:15.326Z,2.45
2022-11-19T12:33:09.408Z,3.00
2022-11-19T12:35:50.633Z,3.22
2022-11-19T12:38:35.029Z,2.83
2022-11-19T12:41:15.889Z,3.20
2022-11-19T12:44:01.269Z,3.83
2022-11-19T12:46:52.114Z,3.10
2022-11-19T12:49:47.307Z,3.28
2022-11-19T12:52:55.317Z,3.22
2022-11-19T12:55:30.616Z,3.05
2022-11-19T12:58:06.878Z,3.83
2022-11-19T13:00:41.355Z,3.67
2022-11-19T13:03:21.187Z,3.20
2022-11-19T13:05:54.868Z,3.10
2022-11-19T13:08:31.727Z,3.37
2022-11-19T13:11:10.065Z,3.35
2022-11-19T13:13:43.970Z,6.10
2022-11-19T13:16:16.684Z,3.50
2022-11-19T13:18:52.989Z,3.80
2022-11-19T13:21:33.112Z,3.20
2022-11-19T13:24:09.459Z,4.20
2022-11-19T13:26:40.017Z,3.58
2022-11-19T13:29:28.354Z,4.47
2022-11-19T13:32:01.790Z,3.13
2022-11-19T13:34:39.848Z,3.60
2022-11-19T13:37:19.325Z,3.58
2022-11-19T13:39:54.607Z,3.67
2022-11-19T13:42:38.285Z,3.75
2022-11-19T13:45:09.063Z,4.25
2022-11-19T13:47:47.860Z,3.67
2022-11-19T13:50:24.299Z,3.88
2022-11-19T13:53:00.869Z,4.28
2022-11-19T13:55:37.986Z,4.38
2022-11-19T13:58:14.660Z,4.70
2022-11-19T14:01:04.058Z,4.38
2022-11-19T14:03:52.605Z,4.68
2022-11-19T14:06:41.208Z,4.88
2022-11-19T14:09:25.595Z,4.97
2022-11-19T14:12:19.393Z,4.03
2022-11-19T14:15:16.332Z,4.30
2022-11-19T14:18:05.435Z,4.95
2022-11-19T14:20:54.616Z,5.35
2022-11-19T14:24:02.080Z,4.20
2022-11-19T14:27:02.103Z,5.22
2022-11-19T14:29:57.632Z,5.38
2022-11-19T14:32:47.027Z,5.20
2022-11-19T14:35:37.711Z,6.55
2022-11-19T14:38:31.780Z,7.18
2022-11-19T14:41:09.581Z,7.82
2022-11-19T14:44:06.004Z,7.28
2022-11-19T14:46:35.883Z,6.03
2022-11-19T14:49:09.609Z,5.85
2022-11-19T14:51:42.279Z,5.93
2022-11-19T14:54:31.684Z,6.72
2022-11-19T14:57:27.904Z,6.20
2022-11-19T15:00:01.476Z,6.20
2022-11-19T15:02:38.170Z,5.70
2022-11-19T15:05:17.311Z,6.20
2022-11-19T15:07:54.530Z,6.38
2022-11-19T15:10:49.090Z,5.95
2022-11-19T15:13:33.135Z,6.40
2022-11-19T15:16:11.204Z,6.07
2022-11-19T15:19:07.187Z,6.03
2022-11-19T15:22:20.854Z,6.70
2022-11-19T15:25:12.446Z,7.10
2022-11-19T15:28:00.035Z,7.00
2022-11-19T15:30:47.183Z,6.72
2022-11-19T15:33:41.195Z,6.88
2022-11-19T15:36:24.523Z,6.88
2022-11-19T15:39:02.632Z,7.50
2022-11-19T15:41:38.107Z,7.45
2022-11-19T15:44:16.204Z,7.57
2022-11-19T15:46:53.739Z,7.07
2022-11-19T15:49:27.516Z,7.32
2022-11-19T15:52:05.245Z,6.47
2022-11-19T15:54:36.175Z,6.93
2022-11-19T15:57:08.873Z,6.20
2022-11-19T15:59:41.133Z,6.18
2022-11-19T16:02:23.554Z,6.65
2022-11-19T16:04:53.372Z,6.78
2022-11-19T16:07:27.231Z,6.05
2022-11-19T16:09:57.916Z,6.47
2022-11-19T16:12:42.244Z,5.85
2022-11-19T16:15:33.348Z,6.53
2022-11-19T16:18:05.966Z,6.18
2022-11-19T16:20:36.727Z,7.20
2022-11-19T16:23:09.684Z,6.45
2022-11-19T16:25:41.985Z,6.95
2022-11-19T16:28:15.691Z,6.72
2022-11-19T16:30:48.459Z,5.72
2022-11-19T16:33:23.173Z,6.72
2022-11-19T16:35:54.147Z,6.65
2022-11-19T16:38:30.343Z,6.55
2022-11-19T16:41:12.840Z,6.43
2022-11-19T16:43:48.552Z,7.20
2022-11-19T16:46:21.394Z,8.52
2022-11-19T16:49:02.743Z,7.05
2022-11-19T16:51:41.260Z,7.10
2022-11-19T16:54:13.229Z,6.35
2022-11-19T16:56:48.529Z,6.90
2022-11-19T16:59:24.274Z,6.65
2022-11-19T17:01:56.679Z,7.10
2022-11-19T17:04:31.696Z,7.40
2022-11-19T17:07:02.223Z,6.53
2022-11-19T17:09:41.601Z,7.30
2022-11-19T17:12:28.377Z,7.13
2022-11-19T17:15:00.874Z,7.38
2022-11-19T17:17:42.409Z,6.60
2022-11-19T17:20:42.320Z,7.00
2022-11-19T17:23:18.843Z,6.40
2022-11-19T17:25:50.698Z,6.68
2022-11-19T17:28:23.814Z,6.40
2022-11-19T17:30:53.640Z,6.15
2022-11-19T17:33:24.411Z,7.78
2022-11-19T17:35:54.930Z,6.30
2022-11-19T17:38:30.002Z,7.53
2022-11-19T17:41:05.018Z,6.30
2022-11-19T17:43:49.157Z,6.57
2022-11-19T17:46:19.295Z,7.15
2022-11-19T17:48:50.622Z,8.20
2022-11-19T17:51:21.912Z,8.52
2022-11-19T17:53:55.672Z,8.98
2022-11-19T17:56:28.689Z,8.40
2022-11-19T17:58:59.673Z,7.85
2022-11-19T18:01:30.350Z,8.23
2022-11-19T18:04:00.249Z,8.30
2022-11-19T18:06:30.156Z,7.25
2022-11-19T18:09:02.540Z,7.05
2022-11-19T18:11:32.685Z,7.07
2022-11-19T18:14:09.817Z,7.80
2022-11-19T18:16:43.590Z,8.90
2022-11-19T18:19:15.258Z,7.13
2022-11-19T18:21:45.561Z,7.35
2022-11-19T18:24:18.090Z,7.82
2022-11-19T18:26:47.938Z,8.10
2022-11-19T18:29:17.892Z,8.80
2022-11-19T18:31:50.885Z,8.57
2022-11-19T18:34:22.383Z,8.80
2022-11-19T18:36:52.996Z,9.13
2022-11-19T18:39:25.371Z,8.88
2022-11-19T18:41:55.109Z,7.97
2022-11-19T18:44:34.211Z,8.02
2022-11-19T18:47:05.676Z,8.63
2022-11-19T18:49:36.237Z,9.00
2022-11-19T18:52:06.793Z,7.97
2022-11-19T18:54:39.147Z,7.80
2022-11-19T18:57:09.225Z,7.38
2022-11-19T18:59:39.313Z,7.40
2022-11-19T19:02:09.778Z,7.30
2022-11-19T19:04:39.686Z,7.32
2022-11-19T19:07:09.632Z,8.25
2022-11-19T19:09:42.123Z,7.10
2022-11-19T19:12:18.545Z,7.28
2022-11-19T19:14:51.589Z,7.72
2022-11-19T19:17:21.878Z,9.13
2022-11-19T19:19:51.828Z,8.07
2022-11-19T19:22:22.566Z,8.23
2022-11-19T19:24:58.207Z,8.68
2022-11-19T19:27:28.383Z,7.72
2022-11-19T19:29:58.202Z,8.65
2022-11-19T19:32:27.988Z,7.40
2022-11-19T19:34:57.898Z,7.72
2022-11-19T19:37:27.759Z,7.53
2022-11-19T19:40:00.359Z,9.00
2022-11-19T19:42:31.387Z,9.23
2022-11-19T19:45:01.233Z,9.68
2022-11-19T19:47:31.308Z,8.60
2022-11-19T19:50:01.106Z,9.05
2022-11-19T19:52:30.880Z,8.75
2022-11-19T19:55:03.310Z,7.68
2022-11-19T19:57:33.130Z,8.15
2022-11-19T20:00:02.872Z,8.23
2022-11-19T20:02:32.776Z,7.35
2022-11-19T20:05:02.517Z,6.60
2022-11-19T20:07:32.355Z,7.53
2022-11-19T20:10:05.273Z,8.10
2022-11-19T20:12:47.363Z,8.50
2022-11-19T20:15:17.215Z,7.22
2022-11-19T20:17:47.141Z,8.07
2022-11-19T20:20:17.388Z,8.82
2022-11-19T20:22:47.216Z,7.68
2022-11-19T20:25:19.789Z,9.18
2022-11-19T20:27:49.578Z,9.02
2022-11-19T20:30:19.422Z,9.55
2022-11-19T20:32:49.209Z,11.00
2022-11-19T20:35:19.212Z,11.20
2022-11-19T20:37:48.985Z,10.60
2022-11-19T20:40:21.536Z,11.02
2022-11-19T20:43:03.962Z,10.43
2022-11-19T20:45:33.724Z,10.05
2022-11-19T20:48:03.602Z,10.20
2022-11-19T20:50:33.380Z,10.27
2022-11-19T20:53:03.167Z,10.65
2022-11-19T20:55:44.287Z,11.70
2022-11-19T20:58:25.316Z,10.88
2022-11-19T21:01:02.733Z,12.07
2022-11-19T21:03:33.888Z,12.07
2022-11-19T21:06:07.496Z,11.65
2022-11-19T21:08:38.687Z,11.60
2022-11-19T21:11:13.693Z,11.80
2022-11-19T21:13:44.353Z,11.88
2022-11-19T21:16:16.399Z,12.48
2022-11-19T21:18:46.803Z,14.02
2022-11-19T21:21:18.433Z,13.05
2022-11-19T21:23:48.800Z,13.88
2022-11-19T21:26:22.410Z,12.43
2022-11-19T21:28:54.549Z,12.77
2022-11-19T21:31:37.932Z,14.27
2022-11-19T21:34:08.487Z,13.30
2022-11-19T21:36:38.657Z,13.43
2022-11-19T21:39:09.471Z,13.18
2022-11-19T21:41:41.905Z,13.32
2022-11-19T21:44:16.564Z,13.45
2022-11-19T21:46:49.568Z,12.55
2022-11-19T21:49:19.814Z,12.43
2022-11-19T21:51:50.292Z,11.90
2022-11-19T21:54:20.132Z,11.88
2022-11-19T21:56:52.452Z,11.32
2022-11-19T21:59:22.548Z,11.68
2022-11-19T22:01:54.893Z,11.80
2022-11-19T22:04:24.840Z,11.05
2022-11-19T22:06:54.615Z,11.18
2022-11-19T22:09:24.414Z,12.93
2022-11-19T22:11:56.808Z,13.82
2022-11-19T22:14:26.632Z,12.70
2022-11-19T22:16:56.793Z,12.43
2022-11-19T22:19:26.597Z,11.30
2022-11-19T22:21:56.392Z,11.27
2022-11-19T22:24:26.141Z,11.57
2022-11-19T22:26:58.682Z,12.70
2022-11-19T22:29:28.663Z,12.43
2022-11-19T22:31:58.985Z,13.23
2022-11-19T22:34:28.772Z,13.65
2022-11-19T22:36:58.619Z,12.13
2022-11-19T22:39:28.400Z,12.40
2022-11-19T22:42:00.735Z,13.23
2022-11-19T22:44:30.476Z,13.65
2022-11-19T22:47:00.997Z,12.95
2022-11-19T22:49:31.076Z,13.90
2022-11-19T22:52:00.888Z,13.55
2022-11-19T22:54:31.006Z,13.60
2022-11-19T22:57:03.405Z,13.40
2022-11-19T22:59:33.324Z,14.20
2022-11-19T23:02:03.104Z,14.10
2022-11-19T23:04:32.958Z,13.95
2022-11-19T23:07:02.782Z,16.35
2022-11-19T23:09:32.695Z,15.70
2022-11-19T23:12:17.546Z,15.68
2022-11-19T23:17:16.912Z,13.82
2022-11-19T23:19:46.865Z,13.30
2022-11-19T23:22:16.606Z,15.00
2022-11-19T23:24:46.406Z,13.63
2022-11-19T23:27:22.115Z,15.57
2022-11-19T23:29:52.228Z,14.48
2022-11-19T23:32:23.017Z,14.18
2022-11-19T23:34:52.852Z,13.73
2022-11-19T23:37:22.788Z,13.45
2022-11-19T23:39:52.564Z,15.25
2022-11-19T23:42:24.956Z,15.65
2022-11-19T23:44:54.821Z,15.32
2022-11-19T23:47:24.596Z,15.88
2022-11-19T23:49:54.504Z,16.27
2022-11-19T23:52:24.275Z,16.25
2022-11-19T23:54:54.053Z,14.52
2022-11-19T23:57:26.452Z,15.38
2022-11-19T23:59:56.291Z,15.05
